Silverdale, Washington
Current Conditions -  °F | °C
As of 10:35 AM on Sunday 23 Nov 2014 (Local Time) from KPWT Reporting Station
Broken Clouds Broken Clouds  
Wind Chill: 46°   Ceiling: 600
Heat Index: 48°   Visibility: 10mi
Dew Point: 46°   Wind: 6mph
Humidity: 93%   Direction: 210°SSW
Pressure: 30.11"   Gusts: NA
Location:  47.65°N, 122.69°W
Report Text: KPWT 231835Z AUTO 21005KT 10SM BKN006 09/08 A3011 RMK AO1
Loading
Personal Weather Stations






























Interactive Weather Map New forecast layout! Learn more

10-Day Weather Forecast

Advertisements
Track Severe Weather on mobile